Sks Doda — LANE7 — position and weather

sailwx.info

Track history (hours):
 
Tides and Currents Weather Stations Pressure Air Temp Water Temp Dewpoint Dewpoint Depression Visibility Wind Speed Wind Dir Waves Ship Positions

Sks Doda

Last reported at 2018-Feb-05 22:46 UTC. Time now 2018-Feb-19 12:05 UTC.
Position S 27°09' E 153°21'.
Warning: this ship's position is 13 days out of date.

Length 250 m; draft 8.5 m.

Type: Tanker. MMSI: 259984000.

Date/timePositionNaut miles runAvg speedWind from/ knotsBaromVisibWave heightAir tempDewpointWater temp
2018-Feb-05 22:46S 27°09' E 153°21'414.9
2018-Feb-05 22:30S 27°13' E 153°20'714.2
2018-Feb-05 22:00S 27°17' E 153°14'611.9
2018-Feb-05 21:30S 27°22' E 153°10'  
2018-Feb-01 21:47S 27°23' E 153°10'2 6.1
2018-Feb-01 21:27S 27°21' E 153°11'52 3.1
2018-Feb-01 04:31S 27°51' E 153°59'112.8
2018-Feb-01 04:28S 27°52' E 153°59'612.8
2018-Feb-01 04:00S 27°58' E 153°59'1312.7
2018-Feb-01 02:58S 28°11' E 153°59'712.8
2018-Feb-01 02:26S 28°17' E 153°59'612.7
2018-Feb-01 01:56S 28°24' E 153°60'612.2
2018-Feb-01 01:29S 28°29' E 153°60'25510.7
2018-Jan-31 01:44S 32°38' E 152°56'312.5
2018-Jan-31 01:29S 32°41' E 152°54'912.2
2018-Jan-31 00:45S 32°48' E 152°48'2411.9
2018-Jan-30 22:43S 33°07' E 152°29'712.8
2018-Jan-30 22:10S 33°13' E 152°24'5512.7
2018-Jan-30 17:50S 33°53' E 151°39'  
2018-Jan-27 20:52S 33°15' E 152°23'911.9
2018-Jan-27 20:08S 33°09' E 152°29'210.9
2018-Jan-27 19:59S 33°07' E 152°30'610.7
2018-Jan-27 19:28S 33°03' E 152°34'510.9
2018-Jan-27 19:00S 32°59' E 152°38'611.3
2018-Jan-27 18:30S 32°55' E 152°42'611.5
2018-Jan-27 17:59S 32°50' E 152°47'611.8
2018-Jan-27 17:30S 32°45' E 152°51'612.0
2018-Jan-27 17:00S 32°41' E 152°55'  
Track history (hours):
 
Tides and Currents Weather Stations Pressure Air Temp Water Temp Dewpoint Dewpoint Depression Visibility Wind Speed Wind Dir Waves Ship Positions

Sks Doda

Last reported at 2018-Feb-05 22:46 UTC. Time now 2018-Feb-19 12:05 UTC.
Position S 27°09' E 153°21'.
Warning: this ship's position is 13 days out of date.

Length 250 m; draft 8.5 m.

Type: Tanker. MMSI: 259984000.

Date/timePositionNaut miles runAvg speedWind from/ knotsBaromVisibWave heightAir tempDewpointWater temp
2018-Feb-05 22:46S 27°09' E 153°21'414.9
2018-Feb-05 22:30S 27°13' E 153°20'714.2
2018-Feb-05 22:00S 27°17' E 153°14'611.9
2018-Feb-05 21:30S 27°22' E 153°10'  
2018-Feb-01 21:47S 27°23' E 153°10'2 6.1
2018-Feb-01 21:27S 27°21' E 153°11'52 3.1
2018-Feb-01 04:31S 27°51' E 153°59'112.8
2018-Feb-01 04:28S 27°52' E 153°59'612.8
2018-Feb-01 04:00S 27°58' E 153°59'1312.7
2018-Feb-01 02:58S 28°11' E 153°59'712.8
2018-Feb-01 02:26S 28°17' E 153°59'612.7
2018-Feb-01 01:56S 28°24' E 153°60'612.2
2018-Feb-01 01:29S 28°29' E 153°60'25510.7
2018-Jan-31 01:44S 32°38' E 152°56'312.5
2018-Jan-31 01:29S 32°41' E 152°54'912.2
2018-Jan-31 00:45S 32°48' E 152°48'2411.9
2018-Jan-30 22:43S 33°07' E 152°29'712.8
2018-Jan-30 22:10S 33°13' E 152°24'5512.7
2018-Jan-30 17:50S 33°53' E 151°39'  
2018-Jan-27 20:52S 33°15' E 152°23'911.9
2018-Jan-27 20:08S 33°09' E 152°29'210.9
2018-Jan-27 19:59S 33°07' E 152°30'610.7
2018-Jan-27 19:28S 33°03' E 152°34'510.9
2018-Jan-27 19:00S 32°59' E 152°38'611.3
2018-Jan-27 18:30S 32°55' E 152°42'611.5
2018-Jan-27 17:59S 32°50' E 152°47'611.8
2018-Jan-27 17:30S 32°45' E 152°51'612.0
2018-Jan-27 17:00S 32°41' E 152°55'  

Dump ship's entire track history